^^
Saratoga-Weather Station Historical Data
Daily Summary for June 19, 2020 Units:  English    Metric   Both
Daily Weekly Monthly Yearly Custom
  High: Low: Average:
Temperature: 86.5 °F 56.7 °F 73 °F
Dew Point: 61 °F 48 °F 54.1 °F
Humidity: 89% 27% 56%
Wind Speed: 8.9mph 0mph 1.4mph
Wind Gust: 11mph - -
Wind- - SW
Pressure: 30 in 29.9 in -
Precipitation: 0 in    
Historical Graphs
 
 
Tabular Data for June 19, 2020
Time Temperature Dew Point Pressure Wind Wind Speed Wind Gust Humidity Rainfall Rate (Hourly) solar
00:02 64.8 °F 55.6 °F 30 in Calm     72% 0 in 0 W/m2
00:07 64.6 °F 55.4 °F 30 in Calm     72% 0 in 0 W/m2
00:12 64.4 °F 55.6 °F 30 in Calm     73% 0 in 0 W/m2
00:17 64.2 °F 55.4 °F 30 in Calm     73% 0 in 0 W/m2
00:22 64 °F 55.2 °F 30 in Calm     73% 0 in 0 W/m2
00:28 64 °F 55.2 °F 30 in South 0.9 mph 1 mph 73% 0 in 0 W/m2
00:33 64.2 °F 55.4 °F 30 in Calm     73% 0 in 0 W/m2
00:38 64 °F 55.2 °F 30 in Calm     73% 0 in 0 W/m2
00:43 64 °F 55.2 °F 30 in Calm     73% 0 in 0 W/m2
00:48 63.9 °F 55 °F 30 in Calm     73% 0 in 0 W/m2
00:53 63.7 °F 54.9 °F 30 in Calm     73% 0 in 0 W/m2
00:58 63.7 °F 55.2 °F 30 in Calm     74% 0 in 0 W/m2
01:03 63.7 °F 55.2 °F 30 in Calm   1 mph 74% 0 in 0 W/m2
01:08 63.5 °F 55 °F 30 in Calm     74% 0 in 0 W/m2
01:13 63.3 °F 54.9 °F 30 in Calm     74% 0 in 0 W/m2
01:18 63.3 °F 55.2 °F 30 in Calm     75% 0 in 0 W/m2
01:23 63.1 °F 55 °F 30 in Calm     75% 0 in 0 W/m2
01:28 63.1 °F 55 °F 30 in Calm     75% 0 in 0 W/m2
01:33 63.1 °F 55 °F 30 in Calm     75% 0 in 0 W/m2
01:38 63.1 °F 55 °F 30 in Calm     75% 0 in 0 W/m2
01:43 63 °F 55.2 °F 30 in Calm   1 mph 76% 0 in 0 W/m2
01:48 63 °F 55.2 °F 30 in Calm     76% 0 in 0 W/m2
01:53 62.8 °F 55 °F 30 in Calm     76% 0 in 0 W/m2
01:58 62.4 °F 54.7 °F 30 in Calm     76% 0 in 0 W/m2
02:04 62.2 °F 54.9 °F 30 in South 0.9 mph 1 mph 77% 0 in 0 W/m2
02:09 62.1 °F 54.7 °F 30 in Calm   1 mph 77% 0 in 0 W/m2
02:14 62.1 °F 54.7 °F 30 in Calm     77% 0 in 0 W/m2
02:19 61.9 °F 54.7 °F 30 in Calm     77% 0 in 0 W/m2
02:24 61.9 °F 54.7 °F 30 in Calm     77% 0 in 0 W/m2
02:29 61.7 °F 54.5 °F 30 in Calm     77% 0 in 0 W/m2
02:34 61.5 °F 54.7 °F 30 in Calm     78% 0 in 0 W/m2
02:39 61.3 °F 54.5 °F 30 in Calm     78% 0 in 0 W/m2
02:44 61.2 °F 54.3 °F 30 in Calm     78% 0 in 0 W/m2
02:49 61.2 °F 54.7 °F 30 in Calm   1 mph 79% 0 in 0 W/m2
02:54 61 °F 54.5 °F 30 in Calm     79% 0 in 0 W/m2
02:59 61 °F 54.5 °F 30 in Calm     79% 0 in 0 W/m2
03:04 60.8 °F 54.3 °F 30 in Calm     79% 0 in 0 W/m2
03:09 60.6 °F 54.1 °F 30 in Calm     79% 0 in 0 W/m2
03:14 60.6 °F 54.5 °F 30 in Calm     80% 0 in 0 W/m2
03:19 60.6 °F 54.5 °F 30 in Calm     80% 0 in 0 W/m2
03:24 60.6 °F 54.5 °F 30 in Calm     80% 0 in 0 W/m2
03:30 60.6 °F 54.5 °F 30 in Calm     80% 0 in 0 W/m2
03:35 60.4 °F 54.3 °F 30 in Calm     80% 0 in 0 W/m2
03:40 60.4 °F 54.3 °F 30 in Calm     80% 0 in 0 W/m2
03:45 60.3 °F 54.1 °F 30 in Calm     80% 0 in 0 W/m2
03:50 60.1 °F 54.3 °F 30 in Calm     81% 0 in 0 W/m2
03:55 59.7 °F 54 °F 30 in Calm     81% 0 in 0 W/m2
04:00 59.5 °F 54 °F 30 in South 0.9 mph 1 mph 82% 0 in 0 W/m2
04:05 59.4 °F 53.8 °F 30 in Calm   1 mph 82% 0 in 0 W/m2
04:10 59.2 °F 53.6 °F 30 in Calm     82% 0 in 0 W/m2
04:15 59.2 °F 53.6 °F 30 in Calm     82% 0 in 0 W/m2
04:20 58.8 °F 53.4 °F 30 in Calm     82% 0 in 0 W/m2
04:25 58.6 °F 53.4 °F 30 in Calm     83% 0 in 0 W/m2
04:30 58.6 °F 53.4 °F 30 in Calm     83% 0 in 0 W/m2
04:35 58.5 °F 53.2 °F 30 in Calm     83% 0 in 0 W/m2
04:40 58.3 °F 53.4 °F 30 in Calm     84% 0 in 0 W/m2
04:46 58.3 °F 53.4 °F 30 in Calm     84% 0 in 0 W/m2
04:51 57.9 °F 53.1 °F 30 in Calm     84% 0 in 0 W/m2
04:56 57.9 °F 53.4 °F 30 in Calm     85% 0 in 0 W/m2
05:01 57.9 °F 53.4 °F 30 in Calm     85% 0 in 0 W/m2
05:06 57.7 °F 53.2 °F 30 in Calm     85% 0 in 0 W/m2
05:11 57.7 °F 53.2 °F 30 in Calm     85% 0 in 0 W/m2
05:16 57.6 °F 53.1 °F 30 in Calm     85% 0 in 0 W/m2
05:21 57.6 °F 53.1 °F 30 in Calm     85% 0 in 0 W/m2
05:26 57.4 °F 53.2 °F 30 in Calm     86% 0 in 0 W/m2
05:31 57.2 °F 53.1 °F 30 in Calm     86% 0 in 0 W/m2
05:36 57 °F 52.9 °F 30 in Calm     86% 0 in 0 W/m2
05:41 57 °F 53.2 °F 30 in Calm     87% 0 in 0 W/m2
05:46 56.8 °F 53.1 °F 30 in Calm     87% 0 in 0 W/m2
05:51 56.8 °F 53.1 °F 30 in Calm     87% 0 in 0 W/m2
05:56 56.8 °F 53.1 °F 30 in Calm     87% 0 in 0 W/m2
06:01 56.7 °F 52.9 °F 30 in Calm     87% 0 in 5 W/m2
06:06 56.7 °F 53.1 °F 30 in Calm     88% 0 in 9 W/m2
06:11 56.7 °F 53.1 °F 30 in Calm     88% 0 in 11 W/m2
06:16 56.7 °F 53.4 °F 30 in Calm     89% 0 in 12 W/m2
06:21 56.7 °F 53.4 °F 30 in Calm     89% 0 in 14 W/m2
06:26 56.7 °F 53.1 °F 30 in Calm     88% 0 in 18 W/m2
06:31 56.7 °F 53.4 °F 30 in Calm     89% 0 in 19 W/m2
06:36 56.7 °F 53.4 °F 30 in Calm     89% 0 in 18 W/m2
06:42 56.8 °F 53.6 °F 30 in Calm     89% 0 in 21 W/m2
06:47 56.8 °F 53.6 °F 30 in Calm     89% 0 in 25 W/m2
06:52 56.8 °F 53.6 °F 30 in Calm     89% 0 in 26 W/m2
06:57 57 °F 53.8 °F 30 in Calm     89% 0 in 28 W/m2
07:02 57.4 °F 53.8 °F 30 in South 2 mph 2 mph 88% 0 in 30 W/m2
07:07 57.7 °F 54.1 °F 30 in Calm     88% 0 in 32 W/m2
07:12 57.7 °F 54.1 °F 30 in Calm     88% 0 in 32 W/m2
07:17 58.3 °F 54.1 °F 30 in Calm     86% 0 in 33 W/m2
07:22 58.5 °F 54.3 °F 30 in Calm     86% 0 in 35 W/m2
07:27 58.6 °F 54.5 °F 30 in Calm     86% 0 in 35 W/m2
07:32 58.8 °F 54.7 °F 30 in Calm     86% 0 in 37 W/m2
07:37 59.2 °F 54.7 °F 30 in Calm     85% 0 in 37 W/m2
07:42 59.5 °F 55 °F 30 in Calm     85% 0 in 39 W/m2
07:47 60.1 °F 55.2 °F 30 in Calm     84% 0 in 39 W/m2
07:52 60.4 °F 55.6 °F 30 in Calm   1 mph 84% 0 in 42 W/m2
07:57 60.8 °F 55.6 °F 30 in Calm   1 mph 83% 0 in 204 W/m2
08:02 61.5 °F 55.9 °F 30 in ESE 0.9 mph 1 mph 82% 0 in 230 W/m2
08:07 62.6 °F 56.3 °F 30 in Calm   1 mph 80% 0 in 244 W/m2
08:12 63.7 °F 56.7 °F 30 in East 0.9 mph 1 mph 78% 0 in 258 W/m2
08:17 64.8 °F 57 °F 30 in NE 2 mph 2 mph 76% 0 in 272 W/m2
08:22 65.5 °F 57 °F 30 in ESE 2 mph 2 mph 74% 0 in 269 W/m2
08:27 66.4 °F 57.4 °F 30 in Calm   3 mph 73% 0 in 156 W/m2
08:32 66.7 °F 57.4 °F 30 in ENE 2 mph 2 mph 72% 0 in 65 W/m2
08:37 67.3 °F 57.6 °F 30 in NE 2 mph 3 mph 71% 0 in 54 W/m2
08:42 67.6 °F 58.3 °F 30 in Calm   1 mph 72% 0 in 54 W/m2
08:47 67.6 °F 57.6 °F 30 in NNE 2 mph 2 mph 70% 0 in 54 W/m2
08:52 68.2 °F 58.1 °F 30 in ESE 2 mph 2 mph 70% 0 in 56 W/m2
08:57 68.7 °F 58.5 °F 30 in ENE 3 mph 3 mph 70% 0 in 56 W/m2
09:02 69.4 °F 58.8 °F 30 in Calm   2 mph 69% 0 in 58 W/m2
09:07 70 °F 59 °F 30 in NE 0.9 mph 4 mph 68% 0 in 62 W/m2
09:12 70.2 °F 59.2 °F 30 in NE 0.9 mph 6 mph 68% 0 in 67 W/m2
09:17 70.2 °F 59.2 °F 30 in ENE 2 mph 4 mph 68% 0 in 192 W/m2
09:23 70.5 °F 59.4 °F 30 in East 2 mph 6 mph 68% 0 in 411 W/m2
09:28 71.2 °F 59.4 °F 30 in ESE 2 mph 3 mph 66% 0 in 445 W/m2
09:33 71.8 °F 59.4 °F 30 in ESE 0.9 mph 4 mph 65% 0 in 436 W/m2
09:38 72 °F 59.2 °F 30 in East 0.9 mph 4 mph 64% 0 in 424 W/m2
09:43 72.5 °F 59.5 °F 30 in SSE 0.9 mph 2 mph 64% 0 in 446 W/m2
09:48 73 °F 59.7 °F 30 in ESE 2 mph 4 mph 63% 0 in 487 W/m2
09:53 73.2 °F 59.9 °F 30 in North 0.9 mph 3 mph 63% 0 in 520 W/m2
09:58 73 °F 59.7 °F 30 in East 2 mph 3 mph 63% 0 in 524 W/m2
10:03 73 °F 59.2 °F 30 in East 2 mph 3 mph 62% 0 in 471 W/m2
10:08 73.6 °F 59.7 °F 30 in North 2 mph 2 mph 62% 0 in 120 W/m2
10:13 73.9 °F 59.7 °F 30 in East 2.9 mph 4 mph 61% 0 in 206 W/m2
10:18 74.3 °F 59.5 °F 30 in ENE 0.9 mph 4 mph 60% 0 in 571 W/m2
10:23 74.8 °F 60.1 °F 30 in ESE 0.9 mph 1 mph 60% 0 in 591 W/m2
10:28 75.6 °F 59.7 °F 30 in WSW 0.9 mph 4 mph 58% 0 in 533 W/m2
10:33 76.3 °F 61 °F 30 in NE 2 mph 4 mph 59% 0 in 622 W/m2
10:38 76.5 °F 60.1 °F 30 in ENE 2 mph 5 mph 57% 0 in 635 W/m2
10:43 76.8 °F 59.9 °F 30 in SE 2 mph 4 mph 56% 0 in 575 W/m2
10:48 77.4 °F 59.9 °F 30 in Calm   5 mph 55% 0 in 406 W/m2
10:53 77.5 °F 59.5 °F 30 in Calm   2 mph 54% 0 in 601 W/m2
10:58 77.7 °F 60.3 °F 30 in ESE 2 mph 7 mph 55% 0 in 659 W/m2
11:03 78.3 °F 60.3 °F 30 in East 4 mph 4 mph 54% 0 in 675 W/m2
11:08 78.8 °F 59.2 °F 30 in SE 2.9 mph 6 mph 51% 0 in 705 W/m2
11:13 79.3 °F 60.3 °F 30 in East 0.9 mph 2 mph 52% 0 in 700 W/m2
11:18 79.5 °F 59.2 °F 30 in WSW 4 mph 6 mph 50% 0 in 596 W/m2
11:23 79.5 °F 58.1 °F 30 in NW 0.9 mph 3 mph 48% 0 in 619 W/m2
11:28 79.9 °F 59 °F 30 in ESE 0.9 mph 2 mph 49% 0 in 668 W/m2
11:33 79.7 °F 57.7 °F 30 in East 2.9 mph 3 mph 47% 0 in 645 W/m2
11:38 79.9 °F 57.9 °F 30 in WNW 2 mph 3 mph 47% 0 in 647 W/m2
11:43 79.7 °F 57.7 °F 30 in WSW 0.9 mph 3 mph 47% 0 in 649 W/m2
11:48 79.9 °F 58.5 °F 30 in West 0.9 mph 4 mph 48% 0 in 735 W/m2
11:53 80.2 °F 58.1 °F 30 in Calm   2 mph 47% 0 in 520 W/m2
11:58 80.6 °F 57.9 °F 30 in NW 4 mph 5 mph 46% 0 in 555 W/m2
12:03 80.2 °F 57 °F 30 in West 2 mph 4 mph 45% 0 in 770 W/m2
12:08 80.2 °F 57 °F 30 in West 2.9 mph 6 mph 45% 0 in 733 W/m2
12:13 80.2 °F 57 °F 30 in NW 4.9 mph 7 mph 45% 0 in 803 W/m2
12:18 80.8 °F 58.1 °F 30 in WNW 0.9 mph 2 mph 46% 0 in 838 W/m2
12:23 81.3 °F 57.4 °F 30 in NW 2 mph 4 mph 44% 0 in 867 W/m2
12:28 82 °F 57.4 °F 30 in Calm   3 mph 43% 0 in 847 W/m2
12:33 82.9 °F 58.1 °F 30 in SE 4 mph 4 mph 43% 0 in 828 W/m2
12:38 83.1 °F 57 °F 30 in West 6 mph 9 mph 41% 0 in 793 W/m2
12:43 82.8 °F 56.7 °F 30 in NW 2 mph 5 mph 41% 0 in 805 W/m2
12:48 82 °F 55.9 °F 30 in Calm   9 mph 41% 0 in 802 W/m2
12:53 82.2 °F 56.1 °F 30 in ENE 0.9 mph 4 mph 41% 0 in 705 W/m2
12:58 82.2 °F 56.1 °F 30 in NW 2.9 mph 8 mph 41% 0 in 694 W/m2
13:03 82 °F 56.7 °F 30 in NNW 2.9 mph 4 mph 42% 0 in 675 W/m2
13:08 82.2 °F 56.1 °F 30 in West 2.9 mph 6 mph 41% 0 in 780 W/m2
13:13 82.4 °F 56.3 °F 30 in ENE 0.9 mph 3 mph 41% 0 in 872 W/m2
13:18 82.9 °F 56.1 °F 30 in ESE 2 mph 2 mph 40% 0 in 821 W/m2
13:23 83.5 °F 56.7 °F 30 in NE 0.9 mph 4 mph 40% 0 in 649 W/m2
13:28 83.1 °F 54.9 °F 30 in WNW 0.9 mph 9 mph 38% 0 in 814 W/m2
13:33 82.9 °F 57.6 °F 30 in NNW 0.9 mph 4 mph 42% 0 in 766 W/m2
13:38 83.3 °F 56.5 °F 30 in NW 0.9 mph 9 mph 40% 0 in 846 W/m2
13:43 82.8 °F 55.9 °F 30 in NNW 2.9 mph 7 mph 40% 0 in 874 W/m2
13:48 82.6 °F 55.8 °F 30 in WNW 4 mph 9 mph 40% 0 in 696 W/m2
13:53 82.4 °F 55.6 °F 30 in West 4 mph 6 mph 40% 0 in 599 W/m2
13:58 82.4 °F 56.3 °F 30 in West 0.9 mph 2 mph 41% 0 in 749 W/m2
14:03 82.9 °F 55.4 °F 30 in NW 4.9 mph 8 mph 39% 0 in 816 W/m2
14:08 83.3 °F 54.3 °F 30 in NNW 2 mph 9 mph 37% 0 in 596 W/m2
14:13 82.9 °F 54 °F 30 in West 6 mph 7 mph 37% 0 in 529 W/m2
14:18 82.6 °F 54.3 °F 30 in SW 2 mph 4 mph 38% 0 in 833 W/m2
14:23 82.9 °F 55.4 °F 30 in WNW 8.9 mph 11 mph 39% 0 in 863 W/m2
14:28 83.1 °F 54.9 °F 30 in NW 2.9 mph 11 mph 38% 0 in 633 W/m2
14:33 82.8 °F 54.5 °F 30 in NNW 2 mph 6 mph 38% 0 in 540 W/m2
14:38 82.9 °F 54.7 °F 30 in NW 0.9 mph 11 mph 38% 0 in 686 W/m2
14:43 83.7 °F 55.4 °F 30 in WSW 2 mph 4 mph 38% 0 in 659 W/m2
14:48 83.7 °F 54.7 °F 30 in SSE 0.9 mph 3 mph 37% 0 in 619 W/m2
14:53 83.8 °F 55.6 °F 30 in ENE 0.9 mph 3 mph 38% 0 in 819 W/m2
14:58 83.8 °F 53.2 °F 30 in SW 2 mph 9 mph 35% 0 in 636 W/m2
15:03 84 °F 54.9 °F 30 in Calm   1 mph 37% 0 in 555 W/m2
15:08 84.6 °F 54 °F 29.9 in WNW 4 mph 7 mph 35% 0 in 587 W/m2
15:13 84.6 °F 51.4 °F 29.9 in WSW 0.9 mph 3 mph 32% 0 in 575 W/m2
15:18 84.4 °F 51.3 °F 29.9 in West 6.9 mph 7 mph 32% 0 in 663 W/m2
15:23 84.4 °F 49.6 °F 29.9 in WSW 4 mph 4 mph 30% 0 in 577 W/m2
15:28 84.6 °F 53.1 °F 29.9 in NE 0.9 mph 1 mph 34% 0 in 536 W/m2
15:33 84.7 °F 51.6 °F 29.9 in WSW 2 mph 6 mph 32% 0 in 512 W/m2
15:38 84.6 °F 52.3 °F 29.9 in ENE 0.9 mph 2 mph 33% 0 in 601 W/m2
15:43 84.9 °F 52.5 °F 29.9 in NNW 2.9 mph 6 mph 33% 0 in 568 W/m2
15:48 84.9 °F 49.1 °F 29.9 in West 2.9 mph 3 mph 29% 0 in 494 W/m2
15:53 84.7 °F 48.9 °F 29.9 in NW 2.9 mph 4 mph 29% 0 in 631 W/m2
15:58 84.7 °F 48 °F 29.9 in NW 2 mph 5 mph 28% 0 in 571 W/m2
16:03 84.6 °F 48.7 °F 29.9 in SSE 0.9 mph 5 mph 29% 0 in 708 W/m2
16:08 84.9 °F 48.2 °F 29.9 in WNW 2 mph 4 mph 28% 0 in 585 W/m2
16:13 84.9 °F 50 °F 29.9 in West 0.9 mph 4 mph 30% 0 in 670 W/m2
16:18 85.3 °F 49.5 °F 29.9 in WNW 4 mph 8 mph 29% 0 in 670 W/m2
16:23 85.6 °F 51.6 °F 29.9 in ENE 0.9 mph 2 mph 31% 0 in 717 W/m2
16:28 85.8 °F 51.6 °F 29.9 in SW 2 mph 3 mph 31% 0 in 675 W/m2
16:33 86.2 °F 51.1 °F 29.9 in Calm   2 mph 30% 0 in 654 W/m2
16:38 85.8 °F 50.7 °F 29.9 in NW 4 mph 7 mph 30% 0 in 520 W/m2
16:43 85.6 °F 50.7 °F 29.9 in WSW 6.9 mph 7 mph 30% 0 in 578 W/m2
16:48 85.3 °F 51.3 °F 29.9 in West 6 mph 9 mph 31% 0 in 278 W/m2
16:53 84.4 °F 50.4 °F 29.9 in West 2 mph 4 mph 31% 0 in 207 W/m2
16:58 84 °F 50.2 °F 29.9 in Calm   8 mph 31% 0 in 216 W/m2
17:03 83.8 °F 51.6 °F 29.9 in SSW 4.9 mph 5 mph 33% 0 in 357 W/m2
17:08 84.4 °F 49.6 °F 29.9 in WSW 2.9 mph 6 mph 30% 0 in 603 W/m2
17:13 85.3 °F 50.4 °F 29.9 in WNW 2.9 mph 4 mph 30% 0 in 738 W/m2
17:18 85.6 °F 49.8 °F 29.9 in West 2.9 mph 3 mph 29% 0 in 677 W/m2
17:23 85.6 °F 49.8 °F 29.9 in Calm   3 mph 29% 0 in 628 W/m2
17:28 86.2 °F 50.2 °F 29.9 in WNW 2.9 mph 7 mph 29% 0 in 613 W/m2
17:33 86.2 °F 50.2 °F 29.9 in WNW 0.9 mph 5 mph 29% 0 in 601 W/m2
17:38 86 °F 50 °F 29.9 in West 2.9 mph 7 mph 29% 0 in 584 W/m2
17:43 86.4 °F 50.4 °F 29.9 in West 6.9 mph 9 mph 29% 0 in 568 W/m2
17:48 86.4 °F 51.3 °F 29.9 in WSW 2.9 mph 3 mph 30% 0 in 563 W/m2
17:54 86.5 °F 49.6 °F 29.9 in West 0.9 mph 7 mph 28% 0 in 582 W/m2
17:59 86.4 °F 49.5 °F 29.9 in NW 2 mph 7 mph 28% 0 in 309 W/m2
18:04 86.2 °F 49.3 °F 29.9 in Calm   4 mph 28% 0 in 538 W/m2
18:09 86.2 °F 50.2 °F 29.9 in West 2.9 mph 7 mph 29% 0 in 519 W/m2
18:14 86.4 °F 50.4 °F 29.9 in WNW 0.9 mph 7 mph 29% 0 in 490 W/m2
18:19 86.5 °F 48.6 °F 29.9 in West 2.9 mph 5 mph 27% 0 in 473 W/m2
18:24 86.2 °F 48.2 °F 29.9 in WSW 4 mph 8 mph 27% 0 in 455 W/m2
18:29 86.2 °F 49.3 °F 29.9 in WNW 6.9 mph 7 mph 28% 0 in 439 W/m2
18:34 86.2 °F 49.3 °F 29.9 in WNW 4 mph 8 mph 28% 0 in 417 W/m2
18:39 85.8 °F 48.9 °F 29.9 in WSW 4 mph 8 mph 28% 0 in 392 W/m2
18:44 85.8 °F 48.9 °F 29.9 in West 4 mph 11 mph 28% 0 in 350 W/m2
18:49 85.8 °F 48.9 °F 29.9 in WNW 2.9 mph 7 mph 28% 0 in 320 W/m2
18:54 85.6 °F 48.7 °F 29.9 in West 2.9 mph 11 mph 28% 0 in 301 W/m2
18:59 85.6 °F 48.7 °F 29.9 in WNW 4 mph 4 mph 28% 0 in 281 W/m2
19:04 85.5 °F 49.6 °F 29.9 in NW 2.9 mph 8 mph 29% 0 in 258 W/m2
19:09 85.6 °F 48.7 °F 29.9 in NNE 2 mph 4 mph 28% 0 in 237 W/m2
19:14 85.5 °F 48.6 °F 29.9 in SW 2 mph 8 mph 28% 0 in 230 W/m2
19:20 85.6 °F 49.8 °F 29.9 in WNW 0.9 mph 2 mph 29% 0 in 237 W/m2
19:25 85.8 °F 48.9 °F 29.9 in WNW 2.9 mph 7 mph 28% 0 in 255 W/m2
19:30 85.6 °F 50.7 °F 29.9 in NNW 2 mph 7 mph 30% 0 in 258 W/m2
19:35 85.5 °F 51.4 °F 29.9 in WSW 2.9 mph 6 mph 31% 0 in 253 W/m2
19:40 85.1 °F 50.2 °F 29.9 in West 6 mph 7 mph 30% 0 in 236 W/m2
19:45 84.9 °F 50 °F 29.9 in WSW 2.9 mph 6 mph 30% 0 in 218 W/m2
19:50 84.7 °F 50.7 °F 29.9 in WNW 4 mph 4 mph 31% 0 in 158 W/m2
19:55 84.6 °F 52.3 °F 29.9 in WSW 4.9 mph 6 mph 33% 0 in 158 W/m2
20:00 84.2 °F 53.6 °F 29.9 in WSW 2.9 mph 8 mph 35% 0 in 137 W/m2
20:05 83.8 °F 54.9 °F 29.9 in West 2 mph 6 mph 37% 0 in 130 W/m2
20:10 83.5 °F 54.5 °F 29.9 in WNW 2.9 mph 8 mph 37% 0 in 127 W/m2
20:15 83.1 °F 54.9 °F 29.9 in WNW 2 mph 9 mph 38% 0 in 123 W/m2
20:20 82.9 °F 55.4 °F 29.9 in West 2 mph 5 mph 39% 0 in 113 W/m2
20:25 82.8 °F 55.2 °F 29.9 in WSW 4 mph 9 mph 39% 0 in 97 W/m2
20:30 82.4 °F 55.6 °F 29.9 in West 0.9 mph 3 mph 40% 0 in 84 W/m2
20:35 82 °F 55.4 °F 29.9 in SW 2 mph 7 mph 40% 0 in 74 W/m2
20:40 81.7 °F 55 °F 29.9 in WSW 2 mph 4 mph 40% 0 in 63 W/m2
20:45 81.3 °F 55.4 °F 29.9 in WNW 4 mph 6 mph 41% 0 in 51 W/m2
20:50 80.8 °F 54.9 °F 29.9 in West 2.9 mph 4 mph 41% 0 in 40 W/m2
20:55 80.2 °F 54.3 °F 29.9 in West 2.9 mph 5 mph 41% 0 in 35 W/m2
21:00 79.9 °F 54.1 °F 29.9 in WNW 2.9 mph 6 mph 41% 0 in 23 W/m2
21:05 79.3 °F 54.3 °F 29.9 in WSW 2 mph 3 mph 42% 0 in 14 W/m2
21:10 78.8 °F 53.8 °F 29.9 in West 2.9 mph 3 mph 42% 0 in 11 W/m2
21:15 78.3 °F 54 °F 29.9 in West 2 mph 2 mph 43% 0 in 7 W/m2
21:20 77.7 °F 53.4 °F 29.9 in WSW 0.9 mph 4 mph 43% 0 in 5 W/m2
21:25 77.4 °F 53.8 °F 29.9 in West 0.9 mph 2 mph 44% 0 in 0 W/m2
21:30 76.6 °F 53.8 °F 29.9 in WSW 2 mph 4 mph 45% 0 in 0 W/m2
21:35 76.3 °F 53.4 °F 29.9 in WSW 2 mph 3 mph 45% 0 in 0 W/m2
21:40 75.9 °F 53.6 °F 29.9 in WSW 0.9 mph 4 mph 46% 0 in 0 W/m2
21:45 75.6 °F 53.2 °F 29.9 in WNW 0.9 mph 4 mph 46% 0 in 0 W/m2
21:50 75.4 °F 53.2 °F 29.9 in WSW 2 mph 3 mph 46% 0 in 0 W/m2
21:55 75.2 °F 53.1 °F 29.9 in WSW 2 mph 2 mph 46% 0 in 0 W/m2
22:00 74.8 °F 52.7 °F 29.9 in WSW 2 mph 2 mph 46% 0 in 0 W/m2
22:05 74.7 °F 52.5 °F 29.9 in West 0.9 mph 3 mph 46% 0 in 0 W/m2
22:10 74.5 °F 52.9 °F 29.9 in West 0.9 mph 2 mph 47% 0 in 0 W/m2
22:15 74.1 °F 52.5 °F 29.9 in Calm   2 mph 47% 0 in 0 W/m2
22:20 73.9 °F 52.5 °F 29.9 in WSW 0.9 mph 3 mph 47% 0 in 0 W/m2
22:25 73.8 °F 51.6 °F 29.9 in WSW 0.9 mph 3 mph 46% 0 in 0 W/m2
22:30 73.6 °F 52.2 °F 29.9 in WSW 2 mph 2 mph 47% 0 in 0 W/m2
22:35 73.4 °F 51.4 °F 29.9 in West 0.9 mph 3 mph 46% 0 in 0 W/m2
22:40 73 °F 52.2 °F 29.9 in West 0.9 mph 1 mph 48% 0 in 0 W/m2
22:45 72.7 °F 52.3 °F 29.9 in West 2 mph 2 mph 49% 0 in 0 W/m2
22:50 72.1 °F 52.5 °F 29.9 in West 2 mph 2 mph 50% 0 in 0 W/m2
22:55 71.8 °F 51.6 °F 29.9 in West 2 mph 2 mph 49% 0 in 0 W/m2
23:00 72.1 °F 51.4 °F 29.9 in West 0.9 mph 4 mph 48% 0 in 0 W/m2
23:05 72.3 °F 50.9 °F 29.9 in West 2.9 mph 4 mph 47% 0 in 0 W/m2
23:10 72.5 °F 51.1 °F 29.9 in West 2 mph 4 mph 47% 0 in 0 W/m2
23:15 72.7 °F 50.7 °F 29.9 in WSW 2.9 mph 4 mph 46% 0 in 0 W/m2
23:20 72.7 °F 50.7 °F 29.9 in West 2 mph 3 mph 46% 0 in 0 W/m2
23:25 72.5 °F 51.1 °F 29.9 in West 0.9 mph 2 mph 47% 0 in 0 W/m2
23:30 72.1 °F 50.7 °F 29.9 in West 0.9 mph 2 mph 47% 0 in 0 W/m2
23:35 71.8 °F 50.5 °F 29.9 in WSW 2 mph 2 mph 47% 0 in 0 W/m2
23:40 71.4 °F 50.2 °F 29.9 in Calm   1 mph 47% 0 in 0 W/m2
23:45 71.1 °F 50.4 °F 30 in Calm   1 mph 48% 0 in 0 W/m2
23:50 70.5 °F 50.9 °F 30 in West 0.9 mph 3 mph 50% 0 in 0 W/m2
23:55 70.2 °F 51.3 °F 30 in Calm     51% 0 in 0 W/m2
Juneau County Weather
Compliments of Weather Underground - 4 mb